createdAt,value
2023-02-11T00:00:12.071Z,100.00
2023-02-11T00:05:15.331Z,100.00
2023-02-11T00:10:20.278Z,100.00
2023-02-11T00:15:24.223Z,100.00
2023-02-11T00:20:27.627Z,100.00
2023-02-11T00:25:32.428Z,100.00
2023-02-11T00:30:37.942Z,100.00
2023-02-11T00:35:41.354Z,100.00
2023-02-11T00:40:46.129Z,100.00
2023-02-11T00:45:49.715Z,100.00
2023-02-11T00:50:53.189Z,100.00
2023-02-11T00:55:57.896Z,100.00
2023-02-11T01:01:02.478Z,100.00
2023-02-11T01:06:07.206Z,100.00
2023-02-11T01:11:17.344Z,100.00
2023-02-11T01:16:22.323Z,100.00
2023-02-11T01:21:25.666Z,100.00
2023-02-11T01:26:30.318Z,100.00
2023-02-11T01:31:34.953Z,100.00
2023-02-11T01:36:38.468Z,100.00
2023-02-11T01:41:43.170Z,100.00
2023-02-11T01:46:46.555Z,100.00
2023-02-11T01:51:55.169Z,100.00
2023-02-11T01:57:19.376Z,100.00
2023-02-11T02:02:31.935Z,100.00
2023-02-11T02:07:40.729Z,100.00
2023-02-11T02:12:45.456Z,100.00
2023-02-11T02:17:58.918Z,100.00
2023-02-11T02:23:36.692Z,100.00
2023-02-11T02:29:07.281Z,100.00
2023-02-11T02:34:18.257Z,100.00
2023-02-11T02:39:27.901Z,100.00
2023-02-11T02:44:31.972Z,100.00
2023-02-11T02:49:36.731Z,100.00
2023-02-11T02:55:08.754Z,100.00
2023-02-11T03:00:20.614Z,100.00
2023-02-11T03:05:33.952Z,100.00
2023-02-11T03:10:41.981Z,100.00
2023-02-11T03:15:49.862Z,100.00
2023-02-11T03:20:55.854Z,100.00
2023-02-11T03:26:04.304Z,100.00
2023-02-11T03:31:13.827Z,100.00
2023-02-11T03:36:23.547Z,100.00
2023-02-11T03:41:27.488Z,100.00
2023-02-11T03:46:35.239Z,100.00
2023-02-11T03:51:40.508Z,100.00
2023-02-11T03:56:50.128Z,100.00
2023-02-11T04:01:53.712Z,100.00
2023-02-11T04:06:58.771Z,100.00
2023-02-11T04:12:02.373Z,100.00
2023-02-11T04:17:06.161Z,100.00
2023-02-11T04:22:10.733Z,100.00
2023-02-11T04:27:14.020Z,100.00
2023-02-11T04:32:17.565Z,100.00
2023-02-11T04:37:22.326Z,100.00
2023-02-11T04:42:25.564Z,100.00
2023-02-11T04:47:28.754Z,100.00
2023-02-11T04:52:33.412Z,100.00
2023-02-11T04:57:36.695Z,100.00
2023-02-11T05:02:39.890Z,100.00
2023-02-11T05:07:44.453Z,100.00
2023-02-11T05:12:49.321Z,100.00
2023-02-11T05:17:52.582Z,100.00
2023-02-11T05:22:57.152Z,100.00
2023-02-11T05:28:00.299Z,100.00
2023-02-11T05:33:03.428Z,100.00
2023-02-11T05:38:08.030Z,100.00
2023-02-11T05:43:11.371Z,100.00
2023-02-11T05:48:15.008Z,100.00
2023-02-11T05:53:19.595Z,100.00
2023-02-11T05:58:22.724Z,100.00
2023-02-11T06:03:26.067Z,100.00
2023-02-11T06:08:30.732Z,100.00
2023-02-11T06:13:34.836Z,100.00
2023-02-11T06:18:38.066Z,100.00
2023-02-11T06:23:43.547Z,100.00
2023-02-11T06:28:47.281Z,100.00
2023-02-11T06:33:50.676Z,100.00
2023-02-11T06:38:56.388Z,100.00
2023-02-11T06:44:00.371Z,100.00
2023-02-11T06:49:04.115Z,100.00
2023-02-11T06:54:09.063Z,100.00
2023-02-11T06:59:16.815Z,100.00
2023-02-11T07:04:20.113Z,100.00
2023-02-11T07:09:24.902Z,100.00
2023-02-11T07:14:28.010Z,100.00
2023-02-11T07:19:31.854Z,100.00
2023-02-11T07:24:36.765Z,100.00
2023-02-11T07:29:40.078Z,100.00
2023-02-11T07:34:43.383Z,100.00
2023-02-11T07:39:48.443Z,100.00
2023-02-11T07:44:52.087Z,100.00
2023-02-11T07:49:56.686Z,100.00
2023-02-11T07:55:04.703Z,100.00
2023-02-11T08:00:09.786Z,100.00
2023-02-11T08:05:16.050Z,100.00
2023-02-11T08:10:21.930Z,100.00
2023-02-11T08:15:25.303Z,100.00
2023-02-11T08:20:28.842Z,100.00
2023-02-11T08:25:34.094Z,100.00
2023-02-11T08:30:37.569Z,100.00
2023-02-11T08:35:41.483Z,100.00
2023-02-11T08:40:46.206Z,100.00
2023-02-11T08:45:49.796Z,100.00
2023-02-11T08:50:53.550Z,100.00
2023-02-11T08:55:58.352Z,100.00
2023-02-11T09:01:01.785Z,100.00
2023-02-11T09:06:07.375Z,100.00
2023-02-11T09:11:13.241Z,100.00
2023-02-11T09:16:22.159Z,100.00
2023-02-11T09:21:25.609Z,100.00
2023-02-11T09:26:32.394Z,100.00
2023-02-11T09:31:35.895Z,100.00
2023-02-11T09:36:41.643Z,100.00
2023-02-11T09:42:06.411Z,100.00
2023-02-11T09:47:25.421Z,100.00
2023-02-11T09:52:38.441Z,100.00
2023-02-11T09:57:44.632Z,100.00
2023-02-11T10:03:04.081Z,100.00
2023-02-11T10:08:16.766Z,100.00
2023-02-11T10:13:36.391Z,100.00
2023-02-11T10:18:59.661Z,100.00
2023-02-11T10:24:06.655Z,100.00
2023-02-11T10:29:24.486Z,100.00
2023-02-11T10:34:27.910Z,100.00
2023-02-11T10:39:32.043Z,100.00
2023-02-11T10:44:40.147Z,100.00
2023-02-11T10:49:45.517Z,100.00
2023-02-11T10:55:01.326Z,100.00
2023-02-11T11:00:21.817Z,100.00
2023-02-11T11:05:30.932Z,100.00
2023-02-11T11:10:45.951Z,100.00
2023-02-11T11:16:09.256Z,100.00
2023-02-11T11:21:15.957Z,100.00
2023-02-11T11:26:19.974Z,100.00
2023-02-11T11:31:28.152Z,100.00
2023-02-11T11:36:37.742Z,98.27
2023-02-11T11:41:52.581Z,96.06
2023-02-11T11:47:31.481Z,98.20
2023-02-11T11:52:42.657Z,93.92
2023-02-11T11:57:45.878Z,92.29
2023-02-11T12:03:20.183Z,92.05
2023-02-11T12:08:28.159Z,94.74
2023-02-11T12:13:50.731Z,95.60
2023-02-11T12:19:32.753Z,94.73
2023-02-11T12:24:54.542Z,95.16
2023-02-11T12:30:09.559Z,95.11
2023-02-11T12:35:26.780Z,95.66
2023-02-11T12:40:41.894Z,97.43
2023-02-11T12:46:00.385Z,96.87
2023-02-11T12:51:15.411Z,96.88
2023-02-11T12:56:25.689Z,96.43
2023-02-11T13:01:33.488Z,94.97
2023-02-11T13:06:43.165Z,95.73
2023-02-11T13:11:52.202Z,97.66
2023-02-11T13:16:57.103Z,95.70
2023-02-11T13:22:09.857Z,95.75
2023-02-11T13:27:35.233Z,95.82
2023-02-11T13:33:07.812Z,95.65
2023-02-11T13:38:23.147Z,97.58
2023-02-11T13:43:29.563Z,98.29
2023-02-11T13:48:36.398Z,98.74
2023-02-11T13:53:50.522Z,100.00
2023-02-11T13:58:54.168Z,100.00
2023-02-11T14:04:38.124Z,100.00
2023-02-11T14:09:42.802Z,100.00
2023-02-11T14:15:02.980Z,100.00
2023-02-11T14:20:36.632Z,100.00
2023-02-11T14:25:44.901Z,100.00
2023-02-11T14:30:59.896Z,100.00
2023-02-11T14:36:11.247Z,100.00
2023-02-11T14:41:21.825Z,100.00
2023-02-11T14:46:27.779Z,100.00
2023-02-11T14:51:36.327Z,100.00
2023-02-11T14:56:42.428Z,100.00
2023-02-11T15:01:50.121Z,100.00
2023-02-11T15:06:54.676Z,100.00
2023-02-11T15:11:59.843Z,100.00
2023-02-11T15:17:07.317Z,100.00
2023-02-11T15:22:21.338Z,100.00
2023-02-11T15:27:25.952Z,100.00
2023-02-11T15:32:29.247Z,100.00
2023-02-11T15:37:32.543Z,100.00
2023-02-11T15:42:51.845Z,100.00
2023-02-11T15:47:59.085Z,100.00
2023-02-11T15:53:24.735Z,100.00
2023-02-11T15:58:29.594Z,100.00
2023-02-11T16:03:33.506Z,100.00
2023-02-11T16:08:37.688Z,100.00
2023-02-11T16:13:48.508Z,100.00
2023-02-11T16:19:04.228Z,100.00
2023-02-11T16:24:19.192Z,100.00
2023-02-11T16:29:27.771Z,100.00
2023-02-11T16:34:31.064Z,100.00
2023-02-11T16:39:34.698Z,100.00
2023-02-11T16:44:39.464Z,100.00
2023-02-11T16:49:43.650Z,100.00
2023-02-11T16:54:47.054Z,100.00
2023-02-11T16:59:52.144Z,100.00
2023-02-11T17:04:56.965Z,100.00
2023-02-11T17:10:01.141Z,100.00
2023-02-11T17:15:07.665Z,100.00
2023-02-11T17:20:14.019Z,100.00
2023-02-11T17:25:17.565Z,100.00
2023-02-11T17:30:23.290Z,100.00
2023-02-11T17:35:27.855Z,100.00
2023-02-11T17:40:32.619Z,100.00
2023-02-11T17:45:42.480Z,100.00
2023-02-11T17:50:46.021Z,100.00
2023-02-11T17:55:50.060Z,100.00
2023-02-11T18:01:01.576Z,100.00
2023-02-11T18:06:07.538Z,100.00
2023-02-11T18:11:11.468Z,100.00
2023-02-11T18:16:17.476Z,100.00
2023-02-11T18:21:22.804Z,100.00
2023-02-11T18:26:28.194Z,100.00
2023-02-11T18:31:35.274Z,100.00
2023-02-11T18:36:38.972Z,100.00
2023-02-11T18:41:43.654Z,100.00
2023-02-11T18:46:49.391Z,100.00
2023-02-11T18:51:52.664Z,100.00
2023-02-11T18:56:55.846Z,100.00
2023-02-11T19:02:00.662Z,100.00
2023-02-11T19:07:06.019Z,100.00
2023-02-11T19:12:10.080Z,100.00
2023-02-11T19:17:15.617Z,100.00
2023-02-11T19:22:19.123Z,100.00
2023-02-11T19:27:22.636Z,100.00
2023-02-11T19:32:28.398Z,100.00
2023-02-11T19:37:32.077Z,100.00
2023-02-11T19:42:35.537Z,100.00
2023-02-11T19:47:40.410Z,100.00
2023-02-11T19:52:45.013Z,100.00
2023-02-11T19:57:48.483Z,100.00
2023-02-11T20:02:53.432Z,100.00
2023-02-11T20:07:56.601Z,100.00
2023-02-11T20:12:59.919Z,100.00
2023-02-11T20:18:04.906Z,100.00
2023-02-11T20:23:08.869Z,100.00
2023-02-11T20:28:13.770Z,100.00
2023-02-11T20:33:18.924Z,100.00
2023-02-11T20:38:22.661Z,100.00
2023-02-11T20:43:26.115Z,100.00
2023-02-11T20:48:31.385Z,100.00
2023-02-11T20:53:36.107Z,100.00
2023-02-11T20:58:41.250Z,100.00
2023-02-11T21:03:50.420Z,100.00
2023-02-11T21:08:54.309Z,100.00
2023-02-11T21:13:57.992Z,100.00
2023-02-11T21:19:03.051Z,100.00
2023-02-11T21:24:07.275Z,100.00
2023-02-11T21:29:11.753Z,100.00
2023-02-11T21:34:17.065Z,100.00
2023-02-11T21:39:21.747Z,100.00
2023-02-11T21:44:25.669Z,100.00
2023-02-11T21:49:30.696Z,100.00
2023-02-11T21:54:34.120Z,100.00
2023-02-11T21:59:38.132Z,100.00
2023-02-11T22:04:43.123Z,100.00
2023-02-11T22:09:46.904Z,100.00
2023-02-11T22:14:50.212Z,100.00
2023-02-11T22:19:56.649Z,100.00
2023-02-11T22:25:00.218Z,100.00
2023-02-11T22:30:04.020Z,100.00
2023-02-11T22:35:09.572Z,100.00
2023-02-11T22:40:14.786Z,100.00
2023-02-11T22:45:18.183Z,100.00
2023-02-11T22:50:22.902Z,100.00
2023-02-11T22:55:26.802Z,100.00
2023-02-11T23:00:33.505Z,100.00
2023-02-11T23:05:43.092Z,100.00
2023-02-11T23:10:46.774Z,100.00
2023-02-11T23:15:50.200Z,100.00
2023-02-11T23:20:55.122Z,100.00
2023-02-11T23:25:58.429Z,100.00
2023-02-11T23:31:02.046Z,100.00
2023-02-11T23:36:07.810Z,100.00
2023-02-11T23:41:11.601Z,100.00
2023-02-11T23:46:15.300Z,100.00
2023-02-11T23:51:20.491Z,100.00
2023-02-11T23:56:25.874Z,100.00
